Mitchell, SD

09:05 AM CDT am 25. September 2016 (GMT -0500)
Capital Addition | | Change Station

Höhe 1316 ft 43.72 °N, 98.03 °W | Updated 14 minutes ago

Overcast
Bedeckt
58.5 °F
gefühlte 58.5 °F
N
9.4
Wind Wechselnd Wind aus West-Nordwest

Heute
Max. -- | schwach -- °F
--% Regenrisiko
Gestern
Max. -- | schwach -- °F
Precip. -- inch
Druck 30.02 inch
Sichtweite 10.0 Meilen
Wolken Bedeckt 3200 ft
Taupunkt 48 °F
Feuchtigkeit 69%
Regen 0.00 inch
Schneehöhe Nicht verfügbar..
7:23 AM 7:23 PM
Letztes Viertel, 27% visible
METAR KMHE 251353Z AUTO 29020G29KT 10SM OVC032 15/08 A3002 RMK AO2 PK WND 28029/1353 SLP164 T01500083 $
Druck 30.02 inch
Sichtweite 10.0 Meilen
Wolken Bedeckt 3200 ft
Taupunkt 48 °F
Feuchtigkeit 69%
Regen 0.00 inch
Schneehöhe Nicht verfügbar..
7:23 AM 7:23 PM
Letztes Viertel, 27% visible
METAR KMHE 251353Z AUTO 29020G29KT 10SM OVC032 15/08 A3002 RMK AO2 PK WND 28029/1353 SLP164 T01500083 $

10-Day Weather Forecast

Almanac

Astronomie

Sep. 25, 2016 Aufgang Untergang
Genaue Zeit
Bürgerliche Dämmerung
Nautische Dämmerung
Astronomische Dämmerung
Mond
Länge des sichtbaren Lichts
Tageslänge
Tomorrow will be .
, % of the Moon is Illuminated

Heutige Rekorde

State Highs State Lows

Community

WunderPhotos

Upload Photos

1,941,619 Fotos hochgeladen!

WunderBlog® & News

Nearby

Luftqualität

  Luftqualität LQ Index Schadstoff
Not available.

Schneehöhe

Station Depth Höhe

Erdbebenaktivität

Stadt Distance Mag. Time & Date
Minimum magnitude displayed is 2.5.

küstennahe Wassertemperaturen

Ort Temperatur

Stations

Wetterstationen in der Umgebung

Stationsstandort Temp. Windchill Taupunkt Feuchtigkeit Wind Precip. Höhe Aktualisiert Art
                   

Watches & Warnings

There are currently no watches in effect.